Flight Track Log - Related Links

Times and Time Zones

All times are in EDT time to prevent confusion due to time zone crossing. See the N800K flight status page for this flight to view local times or setup timezone preferences in your user account.

Time Position Orientation Groundspeed Altitude Reporting Facility
EDT Latitude Longitude Course Direction KTS MPH feet Rate Location/Type
Tue 02:38:21 PM 35.6081 -80.9378 216° Southwest 97 112 1,900  Level Atlanta Center
Tue 02:39:04 PM 35.5897 -80.9539 216° Southwest 106 122 2,400 635 Climbing Atlanta Center
Tue 02:40:05 PM 35.5719 -80.9878 237° Southwest 108 124 3,000 295 Climbing Atlanta Center
Tue 02:41:06 PM 35.5519 -81.0242 236° Southwest 138 159 3,000  Level Atlanta Center
Tue 02:42:13 PM 35.5300 -81.0708 240° Southwest 142 163 3,000  Level Atlanta Center
Tue 02:43:14 PM 35.5122 -81.1122 242° Southwest 130 150 3,000  Level Atlanta Center
Tue 02:44:21 PM 35.4883 -81.1539 235° Southwest 135 155 3,000  Level Atlanta Center
Tue 02:45:16 PM 35.4703 -81.1878 237° Southwest 134 154 3,000  Level Atlanta Center
Tue 02:46:23 PM 35.4464 -81.2344 238° Southwest 138 159 3,000 246 Level Atlanta Center
Tue 02:47:18 PM 35.4303 -81.2656 238° Southwest 125 144 3,500 541 Climbing Atlanta Center
Tue 02:48:14 PM 35.4142 -81.2917 233° Southwest 107 123 4,000 246 Climbing Atlanta Center
Tue 02:49:20 PM 35.3944 -81.3356 241° Southwest 140 161 4,000  Level Atlanta Center
Tue 02:50:21 PM 35.3703 -81.3747 233° Southwest 144 166 4,000  Level Atlanta Center
Tue 02:51:22 PM 35.3503 -81.4186 241° Southwest 141 162 4,000  Level Atlanta Center
Tue 02:52:18 PM 35.3281 -81.4550 233° Southwest 140 161 4,000  Level Atlanta Center
Tue 02:53:19 PM 35.3081 -81.4936 238° Southwest 136 157 4,000  Level Atlanta Center
Tue 02:54:32 PM 35.2819 -81.5453 238° Southwest 143 165 4,000  Level Atlanta Center
Tue 02:56:00 PM 35.2489 -81.5973 232° Southwest  Level FlightAware Approximate
Tue 03:03:00 PM 35.1046 -81.8576 239° Southwest  Level FlightAware Approximate
Tue 03:04:00 PM 35.0855 -81.8959 239° Southwest  Level FlightAware Approximate
Tue 03:05:00 PM 35.0663 -81.9341 239° Southwest  Level FlightAware Approximate
Tue 03:06:00 PM 35.0458 -81.9709 219° Southwest  Level FlightAware Approximate
Tue 03:07:00 PM 35.0174 -81.9993 219° Southwest  Level FlightAware Approximate
Tue 03:08:00 PM 35.0044 -82.0391 236° Southwest  Level FlightAware Approximate
Tue 03:09:00 PM 34.9840 -82.0764 236° Southwest  Level FlightAware Approximate
Tue 03:10:00 PM 34.9635 -82.1136 236° Southwest  Level FlightAware Approximate
Tue 03:11:00 PM 34.9431 -82.1508 236° Southwest  Level FlightAware Approximate
Tue 03:12:00 PM 34.9227 -82.1880 236° Southwest  Level FlightAware Approximate
Tue 03:13:00 PM 34.9022 -82.2251 236° Southwest  Level FlightAware Approximate
Tue 03:14:00 PM 34.8817 -82.2623 236° Southwest  Level FlightAware Approximate
Tue 03:15:00 PM 34.8613 -82.2994 236° Southwest  Level FlightAware Approximate
Tue 03:16:00 PM 34.8408 -82.3365 236° Southwest  Level FlightAware Approximate
Tue 03:17:00 PM 34.8333 -82.3500 236° Southwest  Level FlightAware Approximate
Tue 03:18:00 PM 34.8479 -82.3500 236° Southwest  Level Estimated
Tue 03:19:00 PM 34.8479 -82.3500 236° Southwest  Level Estimated
Tue 03:20:00 PM 34.8479 -82.3500 236° Southwest  Level Estimated
Tue 03:21:00 PM 34.8479 -82.3500 236° Southwest  Level Estimated
Tue 03:22:00 PM 34.8479 -82.3500 236° Southwest  Level Estimated
Tue 03:23:00 PM 34.8479 -82.3500 236° Southwest  Level Estimated

Login

Don't have an account? Register now (free) for customized features, flight alerts, and more!